Terminal Aerodrome Forecast
Issued by NWS

Home | Current Version | Previous Version | Text Only | Print | Product List | Glossary On
Versions: 1 2 3 4 5 6 7 8 9 10 11 12 13 14 15 16
810
FTUS46 KHNX 211730
TAFMCE
TAF
KMCE 211730Z 2118/2218 VRB03KT P6SM SCT150 BKN250 PROB30 2212/2218
      3SM -SHRA OVC030=

USA.gov is the U.S. government's official web portal to all federal, state and local government web resources and services.